Аэропорт: Елизово. Петропавловск-Камчатский

ICAO: UHPP

METAR:
2019/01/21 23:00
UHPP 212300Z 04004MPS 350V090 9999 BKN033CB 02/M03 Q0996 WS R34L R34L/720340 NOSIG RMK MT OBSC QFE743/0991
METAR:
2019/01/21 21:21
TAF UHPP 211942Z 2121/2303 10005G15MPS 5000 -SHSN DRSN BKN011 OVC020CB 
      TEMPO 2121/2206 36008G18MPS 0700 +SHSN BLSN VV003 
     FM220600 34005G15MPS 9999 -SHSN DRSN BKN020CB OVC060 
      TEMPO 2206/2212 31008G17MPS 1000 SHSN VV004 
     FM221200 36003G12MPS 9999 BKN030CB OVC060